Time;durP1;ratioP1;P1;durP2;ratioP2;P2;SDS_P1;SDS_P2;PMS_P1;PMS_P2;Temp;Humidity;BMP_temperature;BMP_pressure;BME280_temperature;BME280_humidity;BME280_pressure;Samples;Min_cycle;Max_cycle;Signal;HPM_P1;HPM_P2
2022/10/02 00:00:15;;;;;;;12.90;9.23;;;18.10;88.40;;;;;;6311012;22;20006;-80
2022/10/02 00:02:59;;;;;;;10.32;8.75;;;18.00;89.10;;;;;;6339023;22;20003;-81
2022/10/02 00:05:46;;;;;;;8.60;6.97;;;18.00;89.20;;;;;;6337378;22;20041;-80
2022/10/02 00:08:12;;;;;;;7.57;6.22;;;18.00;89.10;;;;;;6338322;22;20416;-81
2022/10/02 00:11:05;;;;;;;8.32;7.22;;;18.00;89.00;;;;;;6337771;22;20022;-80
2022/10/02 00:13:57;;;;;;;10.90;8.85;;;18.00;89.30;;;;;;6339070;22;20030;-80
2022/10/02 00:16:36;;;;;;;11.65;7.00;;;18.00;89.50;;;;;;6339570;22;20056;-80
2022/10/02 00:19:03;;;;;;;9.30;7.38;;;17.90;89.20;;;;;;6338726;22;20409;-80
2022/10/02 00:21:59;;;;;;;13.07;9.90;;;18.00;89.40;;;;;;6338212;22;20003;-81
2022/10/02 00:24:41;;;;;;;9.07;7.80;;;17.70;89.80;;;;;;6339348;22;19995;-81
2022/10/02 00:27:36;;;;;;;10.02;6.93;;;17.80;89.80;;;;;;6338605;22;19995;-80
2022/10/02 00:30:04;;;;;;;8.13;6.88;;;17.80;89.80;;;;;;6338893;22;20047;-80
2022/10/02 00:32:41;;;;;;;10.52;8.05;;;17.70;90.10;;;;;;6338715;22;19999;-81
2022/10/02 00:35:31;;;;;;;7.63;6.82;;;17.60;90.30;;;;;;6338723;22;20364;-82
2022/10/02 00:38:05;;;;;;;8.02;6.93;;;17.60;90.20;;;;;;6339474;22;19999;-82
2022/10/02 00:40:48;;;;;;;8.32;7.20;;;17.70;90.20;;;;;;6338215;22;20098;-81
2022/10/02 00:43:44;;;;;;;8.80;7.45;;;17.80;90.10;;;;;;6311280;22;20365;-81
2022/10/02 00:46:12;;;;;;;10.15;7.00;;;17.90;90.00;;;;;;6337925;22;20018;-79
2022/10/02 00:49:19;;;;;;;9.52;6.93;;;17.90;90.00;;;;;;6338977;22;20044;-79
2022/10/02 00:52:09;;;;;;;8.43;7.50;;;18.00;90.00;;;;;;6273653;22;20079;-79
2022/10/02 00:55:06;;;;;;;9.68;7.22;;;18.00;90.00;;;;;;6273738;22;20014;-79
2022/10/02 00:57:53;;;;;;;9.63;7.35;;;18.00;90.00;;;;;;6306355;22;20022;-79
2022/10/02 01:00:19;;;;;;;9.55;7.20;;;18.00;90.10;;;;;;6337975;22;20014;-80
2022/10/02 01:02:57;;;;;;;11.65;8.40;;;18.00;90.10;;;;;;6338385;22;20432;-80
2022/10/02 01:05:24;;;;;;;9.75;8.05;;;18.00;90.20;;;;;;6338371;22;20409;-80
2022/10/02 01:07:53;;;;;;;15.55;9.77;;;17.90;90.10;;;;;;6338874;22;20436;-81
2022/10/02 01:10:21;;;;;;;8.30;7.43;;;17.90;90.30;;;;;;6337973;22;20483;-80
2022/10/02 01:12:48;;;;;;;10.45;8.63;;;17.70;90.50;;;;;;6339020;22;20101;-81
2022/10/02 01:15:17;;;;;;;8.23;7.32;;;17.70;90.50;;;;;;6338205;22;20030;-81
2022/10/02 01:17:43;;;;;;;11.32;9.07;;;17.70;90.60;;;;;;6338258;22;20003;-81
2022/10/02 01:20:53;;;;;;;9.70;7.93;;;17.60;91.10;;;;;;6338349;22;20323;-81
2022/10/02 01:23:26;;;;;;;10.55;8.70;;;17.60;90.90;;;;;;6273137;22;20015;-82
2022/10/02 01:25:52;;;;;;;10.85;8.25;;;17.60;90.90;;;;;;6326763;22;20002;-82
2022/10/02 01:28:18;;;;;;;10.63;7.82;;;17.70;90.90;;;;;;6337986;22;20021;-81
2022/10/02 01:30:49;;;;;;;14.93;11.43;;;17.70;90.90;;;;;;6337826;22;20034;-81
2022/10/02 01:33:15;;;;;;;12.68;9.43;;;17.60;91.20;;;;;;6338981;22;20002;-82
2022/10/02 01:35:42;;;;;;;16.30;12.57;;;17.50;91.40;;;;;;6310519;22;20007;-81
2022/10/02 01:38:15;;;;;;;11.50;9.82;;;17.40;91.70;;;;;;6310596;22;20007;-80
2022/10/02 01:40:41;;;;;;;25.55;11.30;;;17.30;92.00;;;;;;6338160;22;20002;-80
2022/10/02 01:43:19;;;;;;;15.43;12.18;;;17.30;92.10;;;;;;6338394;22;20006;-80
2022/10/02 01:45:45;;;;;;;15.23;12.25;;;17.00;92.60;;;;;;6338548;22;20047;-80
2022/10/02 01:48:50;;;;;;;14.93;11.63;;;16.80;93.00;;;;;;6338393;22;19994;-80
2022/10/02 01:51:27;;;;;;;15.18;11.57;;;16.70;93.60;;;;;;6290893;22;20082;-80
2022/10/02 01:54:08;;;;;;;11.88;9.48;;;16.60;93.60;;;;;;6338584;22;20044;-83
2022/10/02 01:56:49;;;;;;;15.35;11.32;;;16.50;94.00;;;;;;6338066;22;20005;-82
2022/10/02 01:59:18;;;;;;;14.65;11.18;;;16.50;94.10;;;;;;6337821;22;20044;-82
2022/10/02 02:01:59;;;;;;;12.45;9.30;;;16.50;93.90;;;;;;6310779;22;20098;-82
2022/10/02 02:05:03;;;;;;;10.30;7.95;;;16.60;93.70;;;;;;6338210;22;20011;-81
2022/10/02 02:07:43;;;;;;;13.48;11.65;;;16.60;93.60;;;;;;6302306;22;20090;-81
2022/10/02 02:10:22;;;;;;;12.60;10.88;;;16.50;93.80;;;;;;6310230;22;20372;-82
2022/10/02 02:13:04;;;;;;;13.87;10.53;;;16.60;93.60;;;;;;6338620;22;20032;-82
2022/10/02 02:15:39;;;;;;;11.15;8.95;;;16.40;94.00;;;;;;6309848;22;20277;-81
2022/10/02 02:18:25;;;;;;;9.77;7.93;;;16.30;94.10;;;;;;6338450;22;20006;-82
2022/10/02 02:20:53;;;;;;;9.15;7.78;;;16.50;93.70;;;;;;6337166;22;20088;-82
2022/10/02 02:23:24;;;;;;;9.65;7.05;;;16.50;93.50;;;;;;6337918;22;20001;-82
2022/10/02 02:25:56;;;;;;;13.32;9.95;;;16.60;93.50;;;;;;6337954;22;20139;-82
2022/10/02 02:28:23;;;;;;;15.18;10.13;;;16.60;93.50;;;;;;6338265;22;20002;-81
2022/10/02 02:30:52;;;;;;;14.07;11.00;;;16.50;93.60;;;;;;6338294;22;20003;-82
2022/10/02 02:33:29;;;;;;;12.23;9.52;;;16.50;93.70;;;;;;6339600;22;20006;-81
2022/10/02 02:36:00;;;;;;;9.63;7.55;;;16.40;94.10;;;;;;6339455;22;20055;-81
2022/10/02 02:38:31;;;;;;;13.35;8.02;;;16.40;93.80;;;;;;6339988;22;20537;-82
2022/10/02 02:41:02;;;;;;;11.30;8.73;;;16.50;93.60;;;;;;6339963;22;20085;-82
2022/10/02 02:43:39;;;;;;;11.40;7.95;;;16.70;93.50;;;;;;6340309;22;20003;-81
2022/10/02 02:46:26;;;;;;;14.40;9.95;;;16.70;93.20;;;;;;6339872;22;20071;-81
2022/10/02 02:48:59;;;;;;;9.13;7.47;;;16.70;93.50;;;;;;6339899;22;19998;-80
2022/10/02 02:51:33;;;;;;;12.85;7.28;;;16.70;93.90;;;;;;6339910;22;19999;-80
2022/10/02 02:54:28;;;;;;;12.90;10.48;;;16.70;93.50;;;;;;6340008;22;20460;-80
2022/10/02 02:56:57;;;;;;;10.38;8.02;;;16.70;94.10;;;;;;6339538;22;20003;-80
2022/10/02 02:59:28;;;;;;;12.88;8.77;;;16.80;93.80;;;;;;6339520;22;20002;-80
2022/10/02 03:01:54;;;;;;;10.02;8.02;;;16.80;93.80;;;;;;6339289;22;19999;-78
2022/10/02 03:04:19;;;;;;;14.35;10.55;;;16.60;94.10;;;;;;6339051;22;20014;-78
2022/10/02 03:06:48;;;;;;;13.40;10.43;;;16.50;94.20;;;;;;6339836;22;20047;-79
2022/10/02 03:09:18;;;;;;;14.15;10.52;;;16.50;94.40;;;;;;6339839;22;20069;-81
2022/10/02 03:11:55;;;;;;;13.27;9.48;;;16.40;94.40;;;;;;6339785;22;20432;-80
2022/10/02 03:14:56;;;;;;;14.48;10.32;;;16.30;94.70;;;;;;6339329;22;20033;-81
2022/10/02 03:17:31;;;;;;;10.63;8.35;;;16.30;94.50;;;;;;6339481;22;20030;-83
2022/10/02 03:20:33;;;;;;;10.77;8.10;;;16.30;94.40;;;;;;6339431;22;20010;-82
2022/10/02 03:23:27;;;;;;;13.70;8.70;;;16.30;94.60;;;;;;6340061;22;19999;-83
2022/10/02 03:26:13;;;;;;;9.73;7.53;;;16.40;94.20;;;;;;6339488;22;20401;-82
2022/10/02 03:28:57;;;;;;;9.68;8.30;;;16.40;94.00;;;;;;6339769;22;20432;-83
2022/10/02 03:31:27;;;;;;;10.15;6.63;;;16.40;94.00;;;;;;6338532;22;20003;-82
2022/10/02 03:33:54;;;;;;;16.23;11.10;;;16.40;93.90;;;;;;6339490;22;20026;-83
2022/10/02 03:36:21;;;;;;;11.43;8.77;;;16.40;93.80;;;;;;6339479;22;19999;-81
2022/10/02 03:38:48;;;;;;;9.20;6.68;;;16.30;94.10;;;;;;6339984;22;20024;-81
2022/10/02 03:41:13;;;;;;;10.68;6.68;;;16.30;94.00;;;;;;6338815;22;20003;-81
2022/10/02 03:43:39;;;;;;;11.02;7.90;;;16.40;94.00;;;;;;6338946;22;20325;-81
2022/10/02 03:46:05;;;;;;;11.40;8.70;;;16.30;94.00;;;;;;6310133;22;20002;-80
2022/10/02 03:48:31;;;;;;;9.77;7.53;;;16.30;94.00;;;;;;6339144;22;19994;-81
2022/10/02 03:50:57;;;;;;;12.77;10.23;;;16.40;94.00;;;;;;6338643;22;20007;-81
2022/10/02 03:53:30;;;;;;;15.70;11.13;;;16.40;94.00;;;;;;6339550;22;20275;-81
2022/10/02 03:56:34;;;;;;;14.05;11.10;;;16.10;94.40;;;;;;6339014;22;20034;-81
2022/10/02 03:59:02;;;;;;;9.82;7.65;;;16.00;94.90;;;;;;6338689;22;20005;-80
2022/10/02 04:01:38;;;;;;;8.10;6.30;;;16.00;94.80;;;;;;6338496;22;20006;-81
2022/10/02 04:04:10;;;;;;;8.45;6.40;;;16.10;94.40;;;;;;6338670;22;20015;-80
2022/10/02 04:06:41;;;;;;;7.90;6.85;;;16.20;94.20;;;;;;6339217;22;20348;-81
2022/10/02 04:10:06;;;;;;;11.45;8.30;;;16.30;94.30;;;;;;6339610;22;19991;-82
2022/10/02 04:12:40;;;;;;;11.38;7.57;;;16.20;94.50;;;;;;6273855;22;20011;-82
2022/10/02 04:15:22;;;;;;;7.70;6.43;;;16.30;94.30;;;;;;6273244;22;20039;-82
2022/10/02 04:17:50;;;;;;;15.27;9.77;;;16.30;94.10;;;;;;6324538;22;20017;-81
2022/10/02 04:20:46;;;;;;;8.32;6.68;;;16.30;94.20;;;;;;6338759;22;20433;-81
2022/10/02 04:23:30;;;;;;;8.55;6.38;;;16.40;94.20;;;;;;6338888;22;19995;-82
2022/10/02 04:26:03;;;;;;;8.75;6.30;;;16.40;94.00;;;;;;6338789;22;19995;-81
2022/10/02 04:28:54;;;;;;;10.52;8.00;;;16.50;93.90;;;;;;6338266;22;20045;-81
2022/10/02 04:31:20;;;;;;;8.88;7.43;;;16.30;94.20;;;;;;6339288;22;20056;-80
2022/10/02 04:33:45;;;;;;;9.20;7.68;;;16.20;94.20;;;;;;6339298;22;20071;-81
2022/10/02 04:36:25;;;;;;;10.45;7.35;;;16.30;94.10;;;;;;6338412;22;20445;-82
2022/10/02 04:38:57;;;;;;;9.88;6.95;;;16.40;93.90;;;;;;6310986;22;20425;-82
2022/10/02 04:41:41;;;;;;;11.23;8.40;;;16.30;93.90;;;;;;6338192;22;20056;-81
2022/10/02 04:44:15;;;;;;;8.63;6.53;;;16.10;94.50;;;;;;6310577;22;20372;-81
2022/10/02 04:46:47;;;;;;;7.63;5.85;;;16.10;94.20;;;;;;6338915;22;20022;-82
2022/10/02 04:49:21;;;;;;;8.50;6.18;;;16.20;94.10;;;;;;6338594;22;19999;-81
2022/10/02 04:52:06;;;;;;;6.95;5.68;;;16.20;93.90;;;;;;6339142;22;20409;-81
2022/10/02 04:55:00;;;;;;;11.82;7.70;;;16.30;93.80;;;;;;6338220;22;20010;-82
2022/10/02 04:57:57;;;;;;;6.85;6.07;;;16.20;93.90;;;;;;6337019;22;19999;-81
2022/10/02 05:00:25;;;;;;;9.02;6.43;;;16.10;94.00;;;;;;6337452;22;19999;-80
2022/10/02 05:03:31;;;;;;;10.80;7.15;;;16.20;94.10;;;;;;6338690;22;20011;-80
2022/10/02 05:06:32;;;;;;;10.70;6.15;;;16.10;94.10;;;;;;6337991;22;20421;-82
2022/10/02 05:09:28;;;;;;;8.73;6.15;;;16.20;93.90;;;;;;6302889;22;20125;-81
2022/10/02 05:12:14;;;;;;;7.75;6.05;;;16.30;93.80;;;;;;6310383;22;20033;-81
2022/10/02 05:15:02;;;;;;;6.85;5.35;;;16.30;93.80;;;;;;6338351;22;19998;-81
2022/10/02 05:17:42;;;;;;;6.93;5.97;;;16.30;93.70;;;;;;6338587;22;20398;-79
2022/10/02 05:20:20;;;;;;;7.22;5.85;;;16.40;93.70;;;;;;6338016;22;20009;-81
2022/10/02 05:23:06;;;;;;;10.60;5.82;;;16.50;93.60;;;;;;6338049;22;20026;-82
2022/10/02 05:26:01;;;;;;;11.93;5.88;;;16.50;93.30;;;;;;6337450;22;20003;-82
2022/10/02 05:28:52;;;;;;;6.32;5.18;;;16.50;93.30;;;;;;6338168;22;20022;-82
2022/10/02 05:31:39;;;;;;;7.45;6.43;;;16.40;93.40;;;;;;6338257;22;20007;-83
2022/10/02 05:34:20;;;;;;;11.52;8.27;;;16.30;93.80;;;;;;6338590;22;20070;-80
2022/10/02 05:37:09;;;;;;;7.07;6.38;;;16.30;93.50;;;;;;6338260;22;20083;-81
2022/10/02 05:39:48;;;;;;;7.22;5.93;;;16.30;93.60;;;;;;6336201;22;19998;-82
2022/10/02 05:42:27;;;;;;;9.25;6.45;;;16.20;93.80;;;;;;6337571;22;20321;-82
2022/10/02 05:45:48;;;;;;;7.65;6.10;;;16.30;93.60;;;;;;6337564;22;20436;-84
2022/10/02 05:48:25;;;;;;;9.43;5.93;;;16.40;93.60;;;;;;6273641;22;20007;-85
2022/10/02 05:51:24;;;;;;;6.03;5.20;;;16.40;93.50;;;;;;6337990;22;20056;-87
2022/10/02 05:53:58;;;;;;;7.43;6.03;;;16.50;93.50;;;;;;6326232;22;20002;-88
2022/10/02 05:56:43;;;;;;;7.57;4.93;;;16.50;93.40;;;;;;6337700;22;19999;-84
2022/10/02 05:59:22;;;;;;;7.85;5.68;;;16.60;93.30;;;;;;6338389;22;20010;-84
2022/10/02 06:01:50;;;;;;;9.30;6.70;;;16.70;93.20;;;;;;6309753;22;20317;-83
2022/10/02 06:04:36;;;;;;;9.80;6.65;;;16.70;93.20;;;;;;6337978;22;20011;-83
2022/10/02 06:07:08;;;;;;;6.25;5.10;;;16.70;93.10;;;;;;6338361;22;19999;-83
2022/10/02 06:09:48;;;;;;;7.35;5.25;;;16.70;93.10;;;;;;6338433;22;20302;-84
2022/10/02 06:12:38;;;;;;;10.93;6.75;;;16.80;93.10;;;;;;6338905;22;20320;-83
2022/10/02 06:15:15;;;;;;;7.15;5.38;;;16.80;93.00;;;;;;6337986;22;19999;-83
2022/10/02 06:18:02;;;;;;;5.18;4.57;;;16.90;93.00;;;;;;6334750;22;20002;-83
2022/10/02 06:20:42;;;;;;;6.38;4.75;;;16.90;92.80;;;;;;6335271;22;20377;-82
2022/10/02 06:23:23;;;;;;;4.90;4.40;;;16.90;92.80;;;;;;6334138;22;20006;-81
2022/10/02 06:25:54;;;;;;;6.38;4.97;;;17.00;92.80;;;;;;6335045;22;19995;-79
2022/10/02 06:28:24;;;;;;;6.57;5.53;;;16.90;92.80;;;;;;6335123;22;19998;-84
2022/10/02 06:31:09;;;;;;;5.85;4.95;;;16.90;92.90;;;;;;6336247;22;20003;-83
2022/10/02 06:33:34;;;;;;;5.78;4.93;;;16.90;93.00;;;;;;6335995;22;20003;-83
2022/10/02 06:36:16;;;;;;;23.38;6.38;;;17.00;93.00;;;;;;6336719;22;20003;-84
2022/10/02 06:39:00;;;;;;;5.32;4.82;;;16.80;93.10;;;;;;6337105;22;20002;-82
2022/10/02 06:41:50;;;;;;;7.40;5.13;;;17.00;93.10;;;;;;6337309;22;20409;-84
2022/10/02 06:44:27;;;;;;;5.43;4.70;;;17.10;93.00;;;;;;6337589;22;20117;-86
2022/10/02 06:47:13;;;;;;;8.13;5.72;;;17.10;92.80;;;;;;6338121;22;20022;-85
2022/10/02 06:50:15;;;;;;;7.97;4.07;;;17.20;92.60;;;;;;6326631;22;20010;-86
2022/10/02 06:52:40;;;;;;;6.07;4.32;;;17.30;92.60;;;;;;6338041;22;19999;-84
2022/10/02 06:55:16;;;;;;;5.00;3.83;;;17.40;92.50;;;;;;6338070;22;20006;-84
2022/10/02 06:58:00;;;;;;;5.45;4.15;;;17.50;92.40;;;;;;6338052;22;20101;-84
2022/10/02 07:00:26;;;;;;;5.93;4.00;;;17.60;92.30;;;;;;6337893;22;20060;-84
2022/10/02 07:03:00;;;;;;;5.68;4.35;;;17.70;92.10;;;;;;6336649;22;20011;-84
2022/10/02 07:05:52;;;;;;;4.28;3.47;;;17.70;92.00;;;;;;6335608;22;20040;-79
2022/10/02 07:08:35;;;;;;;5.32;4.70;;;17.80;92.00;;;;;;6337462;22;19995;-79
2022/10/02 07:11:24;;;;;;;11.60;5.88;;;17.80;91.80;;;;;;6338001;22;20005;-80
2022/10/02 07:13:59;;;;;;;5.33;4.77;;;17.60;92.00;;;;;;6338621;22;20026;-79
2022/10/02 07:16:29;;;;;;;10.50;6.78;;;17.50;92.20;;;;;;6337996;22;20006;-80
2022/10/02 07:19:19;;;;;;;8.13;5.00;;;17.50;92.30;;;;;;6338592;22;20007;-79
2022/10/02 07:22:07;;;;;;;8.35;5.85;;;17.50;92.50;;;;;;6339666;22;20086;-80
2022/10/02 07:24:44;;;;;;;10.00;5.82;;;17.60;92.30;;;;;;6339831;22;20026;-79
2022/10/02 07:27:28;;;;;;;7.10;5.57;;;17.60;92.20;;;;;;6339480;22;20297;-80
2022/10/02 07:29:56;;;;;;;4.60;4.10;;;17.50;92.40;;;;;;6339915;22;19995;-80
2022/10/02 07:32:40;;;;;;;7.18;3.67;;;17.60;92.40;;;;;;6312344;22;20052;-80
2022/10/02 07:35:27;;;;;;;6.15;4.30;;;17.70;92.30;;;;;;6339719;22;20064;-79
2022/10/02 07:37:56;;;;;;;4.72;3.50;;;17.80;92.20;;;;;;6311661;22;20321;-81
2022/10/02 07:40:34;;;;;;;5.45;3.95;;;17.80;92.10;;;;;;6339737;22;20003;-79
2022/10/02 07:43:20;;;;;;;6.43;5.10;;;17.90;92.10;;;;;;6339640;22;20003;-79
2022/10/02 07:45:58;;;;;;;5.35;3.78;;;17.80;92.00;;;;;;6339710;22;20016;-79
2022/10/02 07:48:57;;;;;;;6.28;5.68;;;17.90;92.30;;;;;;6339086;22;20421;-79
2022/10/02 07:51:48;;;;;;;5.30;4.57;;;17.80;92.20;;;;;;6339456;22;20003;-80
2022/10/02 07:54:37;;;;;;;5.28;3.50;;;17.90;92.10;;;;;;6339572;22;20005;-79
2022/10/02 07:57:31;;;;;;;5.07;4.28;;;17.90;92.10;;;;;;6339326;22;20006;-80
2022/10/02 08:00:26;;;;;;;5.72;3.70;;;18.00;92.00;;;;;;6339340;22;20022;-79
2022/10/02 08:02:55;;;;;;;6.05;3.40;;;18.00;92.10;;;;;;6335796;22;20028;-79
2022/10/02 08:05:28;;;;;;;9.77;5.55;;;18.20;92.00;;;;;;6339555;22;20043;-79
2022/10/02 08:08:02;;;;;;;5.75;3.85;;;18.00;91.80;;;;;;6339277;22;20018;-80
2022/10/02 08:10:34;;;;;;;5.95;4.78;;;18.00;92.10;;;;;;6339772;22;20452;-80
2022/10/02 08:13:07;;;;;;;7.50;3.60;;;18.10;92.00;;;;;;6338885;22;19999;-80
2022/10/02 08:15:37;;;;;;;6.70;4.50;;;18.20;91.90;;;;;;6337772;22;20005;-79
2022/10/02 08:18:34;;;;;;;4.28;3.17;;;18.20;91.80;;;;;;6337634;22;20003;-80
2022/10/02 08:21:00;;;;;;;5.80;3.53;;;18.40;91.80;;;;;;6338225;22;20009;-80
2022/10/02 08:23:32;;;;;;;4.82;3.42;;;18.50;91.70;;;;;;6339307;22;19995;-80
2022/10/02 08:26:20;;;;;;;5.22;4.10;;;18.50;91.60;;;;;;6338879;22;20567;-80
2022/10/02 08:29:04;;;;;;;7.38;4.65;;;18.60;91.50;;;;;;6338890;22;20389;-78
2022/10/02 08:31:34;;;;;;;5.68;4.40;;;18.50;91.50;;;;;;6337623;22;19999;-85
2022/10/02 08:34:21;;;;;;;6.00;4.72;;;18.60;91.60;;;;;;6337811;22;19998;-86
2022/10/02 08:36:58;;;;;;;6.00;4.97;;;18.40;92.00;;;;;;6337665;22;20002;-85
2022/10/02 08:39:49;;;;;;;5.32;4.30;;;18.50;91.90;;;;;;6337664;22;20003;-85
2022/10/02 08:42:44;;;;;;;10.02;5.45;;;18.50;91.90;;;;;;6337616;22;20432;-85
2022/10/02 08:45:47;;;;;;;4.20;3.03;;;18.60;91.90;;;;;;6280946;22;20011;-85
2022/10/02 08:48:38;;;;;;;8.27;5.07;;;18.70;91.90;;;;;;6338621;22;20070;-85
2022/10/02 08:51:32;;;;;;;6.05;3.90;;;18.80;91.60;;;;;;6338054;22;20009;-87
2022/10/02 08:54:06;;;;;;;3.20;2.75;;;19.00;91.60;;;;;;6338006;22;20077;-86
2022/10/02 08:57:19;;;;;;;5.40;2.83;;;19.40;91.60;;;;;;6337058;22;20010;-86
2022/10/02 08:59:54;;;;;;;9.07;6.13;;;19.70;91.40;;;;;;6329528;22;20014;-85
2022/10/02 09:03:01;;;;;;;3.83;2.97;;;19.90;90.00;;;;;;6335609;22;20027;-77
2022/10/02 09:05:51;;;;;;;4.18;2.85;;;20.20;90.50;;;;;;6314278;22;20349;-76
2022/10/02 09:08:45;;;;;;;3.08;2.70;;;20.40;90.40;;;;;;6337129;22;20003;-76
2022/10/02 09:11:44;;;;;;;3.28;2.45;;;20.70;90.20;;;;;;6336431;22;19998;-76
2022/10/02 09:14:35;;;;;;;3.45;2.70;;;20.90;89.80;;;;;;6309837;22;20033;-81
2022/10/02 09:17:15;;;;;;;4.72;3.13;;;21.10;89.40;;;;;;6308828;22;20344;-83
2022/10/02 09:19:59;;;;;;;8.52;4.10;;;21.20;89.00;;;;;;6337197;22;20006;-84
2022/10/02 09:23:04;;;;;;;7.88;5.88;;;21.40;87.90;;;;;;6336733;22;20027;-80
2022/10/02 09:25:48;;;;;;;8.32;3.30;;;21.30;87.30;;;;;;6336544;22;20048;-81
2022/10/02 09:28:32;;;;;;;7.50;5.18;;;21.40;87.40;;;;;;6336913;22;20364;-81
2022/10/02 09:31:33;;;;;;;7.78;5.47;;;21.40;86.90;;;;;;6336980;22;20030;-81
2022/10/02 09:34:30;;;;;;;8.02;4.63;;;21.50;86.90;;;;;;6322894;22;20009;-81
2022/10/02 09:37:03;;;;;;;6.93;4.10;;;21.50;86.30;;;;;;6335321;22;20328;-80
2022/10/02 09:40:07;;;;;;;16.75;7.35;;;21.60;86.80;;;;;;6336248;22;20415;-80
2022/10/02 09:42:36;;;;;;;9.55;5.65;;;21.70;86.40;;;;;;6306965;22;20508;-80
2022/10/02 09:45:23;;;;;;;9.90;7.07;;;21.80;85.70;;;;;;6308473;22;20006;-80
2022/10/02 09:48:43;;;;;;;7.57;5.65;;;21.70;84.80;;;;;;6336629;22;20007;-80
2022/10/02 09:51:21;;;;;;;5.80;4.32;;;21.70;85.60;;;;;;6270874;22;20009;-81
2022/10/02 09:54:09;;;;;;;8.20;4.60;;;22.10;86.40;;;;;;6333571;22;20003;-81
2022/10/02 09:56:53;;;;;;;13.48;6.03;;;22.30;86.10;;;;;;6335800;22;20070;-81
2022/10/02 09:59:57;;;;;;;8.80;6.40;;;22.60;85.70;;;;;;6335115;22;20363;-81
2022/10/02 10:03:12;;;;;;;5.47;3.92;;;22.90;83.70;;;;;;6270026;22;20181;-81
2022/10/02 10:06:05;;;;;;;4.90;4.20;;;23.00;83.90;;;;;;6335352;22;20003;-80
2022/10/02 10:08:52;;;;;;;7.63;4.38;;;23.30;83.60;;;;;;6334825;22;20081;-81
2022/10/02 10:11:28;;;;;;;5.60;3.70;;;23.50;83.00;;;;;;6334403;22;20018;-80
2022/10/02 10:13:54;;;;;;;6.68;3.80;;;23.70;82.80;;;;;;6334982;22;20018;-80
2022/10/02 10:17:08;;;;;;;5.50;4.25;;;23.90;82.50;;;;;;6331969;22;20005;-80
2022/10/02 10:20:07;;;;;;;7.32;5.70;;;24.10;81.50;;;;;;6271467;22;20088;-81
2022/10/02 10:22:33;;;;;;;6.87;3.47;;;24.20;78.60;;;;;;6336465;22;20017;-82
2022/10/02 10:25:17;;;;;;;4.30;3.35;;;24.30;80.20;;;;;;6336594;22;20027;-81
2022/10/02 10:28:01;;;;;;;7.43;3.67;;;24.30;79.80;;;;;;6334972;22;20003;-82
2022/10/02 10:30:45;;;;;;;5.53;4.47;;;24.40;80.10;;;;;;6335823;22;20021;-81
2022/10/02 10:33:34;;;;;;;6.70;4.22;;;24.50;79.30;;;;;;6335438;22;20009;-81
2022/10/02 10:39:29;;;;;;;4.75;3.20;;;24.50;79.00;;;;;;6337548;22;20281;-84
2022/10/02 10:42:07;;;;;;;4.53;2.97;;;24.70;79.30;;;;;;6309414;22;20447;-83
2022/10/02 10:45:16;;;;;;;7.38;4.28;;;24.90;79.10;;;;;;6338069;22;19999;-86
2022/10/02 10:48:12;;;;;;;5.70;2.92;;;25.00;78.00;;;;;;6309146;22;20006;-87
2022/10/02 10:51:16;;;;;;;4.70;3.47;;;25.20;78.00;;;;;;6336363;22;19999;-87
2022/10/02 10:54:13;;;;;;;6.00;4.07;;;25.10;76.90;;;;;;6338016;22;20616;-86
2022/10/02 10:56:48;;;;;;;5.30;4.40;;;25.10;76.70;;;;;;6339590;22;20017;-87
2022/10/02 10:59:47;;;;;;;7.55;5.05;;;25.00;75.60;;;;;;6339436;22;20025;-87
2022/10/02 11:02:34;;;;;;;4.13;3.10;;;24.90;75.70;;;;;;6339555;22;20007;-86
2022/10/02 11:05:45;;;;;;;6.68;3.90;;;24.70;76.40;;;;;;6312766;22;20030;-86
2022/10/02 11:08:25;;;;;;;4.57;3.35;;;24.60;76.80;;;;;;6340209;22;20048;-87
2022/10/02 11:11:17;;;;;;;6.90;3.60;;;24.50;77.10;;;;;;6339863;22;20081;-86
2022/10/02 11:14:02;;;;;;;4.55;3.53;;;24.60;77.60;;;;;;6340712;22;19994;-87
2022/10/02 11:17:04;;;;;;;5.65;4.38;;;24.70;77.90;;;;;;6339459;22;19999;-86
2022/10/02 11:19:47;;;;;;;6.63;3.60;;;24.70;75.20;;;;;;6339869;22;19995;-86
2022/10/02 11:22:39;;;;;;;5.00;2.88;;;24.70;76.00;;;;;;6337869;22;20048;-85
2022/10/02 11:25:20;;;;;;;6.25;3.33;;;24.70;76.20;;;;;;6336310;22;20463;-86
2022/10/02 11:27:56;;;;;;;4.18;3.10;;;24.60;76.50;;;;;;6333947;22;20034;-86
2022/10/02 11:30:21;;;;;;;6.85;2.38;;;24.70;76.50;;;;;;6333484;22;20006;-86
2022/10/02 11:33:18;;;;;;;4.05;3.65;;;25.00;76.60;;;;;;6332830;22;20081;-79
2022/10/02 11:35:57;;;;;;;6.28;4.32;;;25.30;76.30;;;;;;6331807;22;20247;-79
2022/10/02 11:38:53;;;;;;;6.97;5.47;;;25.60;74.90;;;;;;6337199;22;20049;-78
2022/10/02 11:41:42;;;;;;;7.97;4.95;;;25.60;71.70;;;;;;6311270;22;20003;-77
2022/10/02 11:44:26;;;;;;;7.25;4.70;;;25.40;73.40;;;;;;6339520;22;19998;-79
2022/10/02 11:47:37;;;;;;;6.35;5.22;;;25.10;73.80;;;;;;6338741;22;20005;-78
2022/10/02 11:50:20;;;;;;;4.72;3.95;;;24.90;74.30;;;;;;6339079;22;20052;-79
2022/10/02 11:53:00;;;;;;;8.45;3.80;;;24.70;75.00;;;;;;6338487;22;20087;-79
2022/10/02 11:55:44;;;;;;;6.28;4.40;;;24.60;75.50;;;;;;6339391;22;20333;-78
2022/10/02 11:58:22;;;;;;;5.20;4.47;;;24.50;76.00;;;;;;6339372;22;20002;-78
2022/10/02 12:01:26;;;;;;;12.05;5.68;;;24.40;75.80;;;;;;6338563;22;20114;-79
2022/10/02 12:04:17;;;;;;;8.82;6.28;;;24.40;76.00;;;;;;6326703;22;20045;-79
2022/10/02 12:07:15;;;;;;;6.70;5.75;;;24.40;76.40;;;;;;6338213;22;20467;-79
2022/10/02 12:09:55;;;;;;;6.75;5.30;;;24.70;76.10;;;;;;6338811;22;20001;-78
2022/10/02 12:12:31;;;;;;;7.93;5.30;;;25.00;75.60;;;;;;6336466;22;19995;-79
2022/10/02 12:15:40;;;;;;;8.52;6.00;;;25.40;75.10;;;;;;6307965;22;20006;-78
2022/10/02 12:18:17;;;;;;;11.27;5.32;;;25.90;74.10;;;;;;6336878;22;20016;-79
2022/10/02 12:27:51;;;;;;;7.53;5.30;;;27.00;71.20;;;;;;6322808;22;20018;-78
2022/10/02 12:30:42;;;;;;;8.55;5.72;;;27.20;70.50;;;;;;6338487;22;20003;-78
2022/10/02 12:33:21;;;;;;;6.68;5.32;;;27.20;70.30;;;;;;6308122;22;20003;-78
2022/10/02 12:36:05;;;;;;;5.80;4.40;;;27.20;69.70;;;;;;6338316;22;20026;-78
2022/10/02 12:39:13;;;;;;;6.82;4.90;;;27.00;69.80;;;;;;6338545;22;20340;-78
2022/10/02 12:41:53;;;;;;;9.38;5.47;;;26.90;70.00;;;;;;6338739;22;20003;-78
2022/10/02 12:44:25;;;;;;;8.30;6.05;;;26.70;70.40;;;;;;6338502;22;20024;-79
2022/10/02 12:47:16;;;;;;;6.35;5.70;;;26.60;70.40;;;;;;6338230;22;19995;-78
2022/10/02 12:49:44;;;;;;;6.63;5.30;;;26.40;70.10;;;;;;6338505;22;20003;-79
2022/10/02 12:52:39;;;;;;;7.68;6.15;;;26.20;70.70;;;;;;6338299;22;20006;-78
2022/10/02 12:55:32;;;;;;;9.32;6.28;;;25.90;70.90;;;;;;6338836;22;20003;-78
2022/10/02 12:58:10;;;;;;;5.93;4.95;;;25.70;71.00;;;;;;6338680;22;20028;-78
2022/10/02 13:01:12;;;;;;;7.47;5.93;;;25.50;71.70;;;;;;6337424;22;20022;-80
2022/10/02 13:03:55;;;;;;;6.60;5.18;;;25.40;71.10;;;;;;6337375;22;20017;-80
2022/10/02 13:06:36;;;;;;;8.93;4.78;;;25.20;72.10;;;;;;6336956;22;20420;-80
2022/10/02 13:09:26;;;;;;;6.47;4.78;;;25.20;72.60;;;;;;6336505;22;20010;-79
2022/10/02 13:12:03;;;;;;;6.90;4.32;;;25.10;72.70;;;;;;6336373;22;20007;-79
2022/10/02 13:15:00;;;;;;;7.00;5.22;;;25.10;73.10;;;;;;6337391;22;20017;-79
2022/10/02 13:17:45;;;;;;;6.38;5.50;;;25.10;73.20;;;;;;6336153;22;20002;-80
2022/10/02 13:20:31;;;;;;;6.10;5.50;;;25.10;73.50;;;;;;6337407;22;20002;-84
2022/10/02 13:23:33;;;;;;;6.10;4.40;;;24.90;73.50;;;;;;6304439;22;20077;-86
2022/10/02 13:26:10;;;;;;;11.52;5.40;;;24.90;74.10;;;;;;6309588;22;20006;-85
2022/10/02 13:28:41;;;;;;;9.80;4.93;;;24.80;74.10;;;;;;6337309;22;19999;-82
2022/10/02 13:31:15;;;;;;;8.05;5.10;;;24.80;74.10;;;;;;6336546;22;20002;-83
2022/10/02 13:33:59;;;;;;;9.00;5.80;;;24.80;74.10;;;;;;6338015;22;20006;-83
2022/10/02 13:36:56;;;;;;;6.15;4.78;;;24.70;74.10;;;;;;6337924;22;20425;-86
2022/10/02 13:39:49;;;;;;;6.45;4.90;;;24.60;74.40;;;;;;6338515;22;20005;-87
2022/10/02 13:42:20;;;;;;;6.18;4.80;;;24.60;74.30;;;;;;6338792;22;20005;-86
2022/10/02 13:45:06;;;;;;;7.68;5.57;;;24.50;74.40;;;;;;6338926;22;20021;-87
2022/10/02 13:47:39;;;;;;;7.30;5.75;;;24.50;74.60;;;;;;6338345;22;20414;-86
2022/10/02 13:50:33;;;;;;;7.13;4.60;;;24.40;74.60;;;;;;6311295;22;20333;-87
2022/10/02 13:53:38;;;;;;;7.35;4.88;;;24.40;75.00;;;;;;6338276;22;19995;-86
2022/10/02 13:56:06;;;;;;;6.40;4.75;;;24.40;75.40;;;;;;6310591;22;20389;-86
2022/10/02 13:58:54;;;;;;;7.55;4.50;;;24.30;75.40;;;;;;6338020;22;20006;-86
2022/10/02 14:01:32;;;;;;;6.80;4.20;;;24.20;75.20;;;;;;6337657;22;20009;-86
2022/10/02 14:04:01;;;;;;;7.88;5.32;;;24.20;75.50;;;;;;6338480;22;20011;-86
2022/10/02 14:07:03;;;;;;;4.05;3.55;;;24.20;75.70;;;;;;6338253;22;20056;-87
2022/10/02 14:09:46;;;;;;;4.40;3.65;;;24.20;75.40;;;;;;6330113;22;20010;-86
2022/10/02 14:12:26;;;;;;;6.10;4.03;;;24.10;75.60;;;;;;6336789;22;20009;-87